KRKS Airport (Southwest Wyoming Rgnl) Information

FAA: RKS - ICAO: KRKS

KRKS Airport Location

State Wyoming
County Sweetwater
City Rock Springs
KRKS Airport is 7 miles east of Rock Springs, WY.
Latitude 41-35-39.2000N
Longitude 109-03-54.7000W
Elevation 6,764ft

KRKS Airport METARs

METAR KRKS 201854Z AUTO 29019G34KT 10SM CLR 28/M03 A3003 RMK AO2 PK WND 24037/1756 SLP066 T02781028 $
Altimeter 30.03"
Temperature 27.8°C (82.0°F)
Wind 290° at 19KT with gusts to 34KT
Clouds Skies are clear.
Visibility 10.0mi
Time observed: 2021-06-20T18:54:00Z

KRKS Airport Details

Status Operational
Activation July 1942
Ownership Public
Usage Public
Chart SALT LAKE CITY
ATC on-site No
Beacon schedule sunset-sunrise
Beacon color clear green

KRKS Airport Contacts

Owner ROCK SPRINGS/SWEETWATER COUNTY
Owner address BOX 1987, ROCK SPRINGS, WY 82902-1987
Owner phone 307-352-6880
Manager WILDLIFE MANAGEMENT COORDINATOR
Manager address PO BOX 67, JACKSON, WY 83001
Manager phone 307-733-2321

KRKS Airport (Southwest Wyoming Rgnl) Radio Frequencies

KRKS (Airport) Radio Frequencies

UNICOM 122.8
Common traffic advisory frequency (CTAF) 122.8